Time;durP1;ratioP1;P1;durP2;ratioP2;P2;SDS_P1;SDS_P2;PMS_P1;PMS_P2;Temp;Humidity;BMP_temperature;BMP_pressure;BME280_temperature;BME280_humidity;BME280_pressure;Samples;Min_cycle;Max_cycle;Signal;HPM_P1;HPM_P2
2022/11/09 00:02:13;;;;;;;4.90;2.28;;;;;;;16.23;61.21;98432.59;5092465;28;20031;-44
2022/11/09 00:04:39;;;;;;;6.78;2.78;;;;;;;16.17;61.50;98436.19;5092385;28;20107;-44
2022/11/09 00:07:04;;;;;;;7.10;2.38;;;;;;;16.12;61.73;98433.50;5091102;28;20505;-44
2022/11/09 00:09:30;;;;;;;8.38;2.40;;;;;;;16.09;61.71;98433.97;5091069;28;20028;-44
2022/11/09 00:11:56;;;;;;;8.50;2.75;;;;;;;16.08;61.91;98416.50;5092324;28;20032;-44
2022/11/09 00:14:21;;;;;;;8.27;2.92;;;;;;;16.03;62.07;98419.06;5091020;28;20111;-44
2022/11/09 00:16:47;;;;;;;8.35;2.50;;;;;;;16.00;62.11;98420.34;5092224;28;20020;-44
2022/11/09 00:19:13;;;;;;;5.97;2.60;;;;;;;16.01;62.26;98410.56;5090955;28;20390;-44
2022/11/09 00:21:39;;;;;;;5.45;2.40;;;;;;;16.05;61.76;98424.91;5091860;28;20048;-44
2022/11/09 00:24:05;;;;;;;7.43;2.85;;;;;;;16.00;61.78;98425.63;5090865;28;20456;-44
2022/11/09 00:26:31;;;;;;;5.07;3.80;;;;;;;15.94;62.14;98422.09;5092061;28;20024;-44
2022/11/09 00:28:56;;;;;;;6.28;3.72;;;;;;;15.92;63.21;98426.03;5090479;28;20028;-44
2022/11/09 00:31:23;;;;;;;8.10;4.57;;;;;;;15.93;65.09;98425.78;5091651;28;20481;-44
2022/11/09 00:33:51;;;;;;;7.25;3.67;;;;;;;15.97;65.41;98424.25;5092033;28;20031;-44
2022/11/09 00:36:19;;;;;;;5.95;2.80;;;;;;;15.72;65.99;98423.84;5092038;28;20024;-43
2022/11/09 00:38:52;;;;;;;5.95;2.85;;;;;;;15.53;66.49;98428.53;5091994;28;20422;-44
2022/11/09 00:41:18;;;;;;;10.98;3.08;;;;;;;15.52;67.10;98429.59;5091879;28;20024;-44
2022/11/09 00:43:44;;;;;;;7.57;3.10;;;;;;;15.80;68.56;98435.91;5090694;28;20456;-44
2022/11/09 00:46:10;;;;;;;13.02;3.05;;;;;;;15.94;68.71;98439.84;5091997;28;20112;-44
2022/11/09 00:48:35;;;;;;;7.18;2.75;;;;;;;15.99;68.94;98434.59;5091880;28;20024;-44
2022/11/09 00:51:01;;;;;;;12.45;3.13;;;;;;;15.91;68.71;98440.31;5090850;28;20020;-44
2022/11/09 00:53:27;;;;;;;8.13;3.10;;;;;;;16.04;69.13;98447.94;5090512;28;20023;-44
2022/11/09 00:55:57;;;;;;;10.52;3.53;;;;;;;16.22;68.30;98440.75;5090463;28;20032;-44
2022/11/09 00:58:23;;;;;;;10.27;3.00;;;;;;;16.24;68.41;98433.38;5091826;28;20047;-44
2022/11/09 01:00:49;;;;;;;8.93;3.20;;;;;;;16.54;67.89;98435.63;5090578;28;20493;-44
2022/11/09 01:03:15;;;;;;;7.18;2.70;;;;;;;16.65;66.89;98441.88;5090448;28;20077;-44
2022/11/09 01:05:41;;;;;;;10.00;3.63;;;;;;;16.65;66.73;98440.03;5090387;28;20497;-44
2022/11/09 01:08:07;;;;;;;10.93;3.03;;;;;;;16.70;66.03;98440.09;5090427;28;20485;-44
2022/11/09 01:10:33;;;;;;;13.43;3.38;;;;;;;16.87;65.60;98447.22;5091689;28;20062;-44
2022/11/09 01:12:59;;;;;;;6.95;3.05;;;;;;;16.86;65.16;98457.03;5091631;28;20016;-44
2022/11/09 01:15:26;;;;;;;15.88;4.50;;;;;;;16.80;65.36;98457.97;5091657;28;20035;-44
2022/11/09 01:17:52;;;;;;;6.82;3.22;;;;;;;16.78;64.88;98457.41;5090355;28;20047;-44
2022/11/09 01:20:18;;;;;;;7.60;3.63;;;;;;;16.68;64.60;98454.63;5090276;28;20455;-44
2022/11/09 01:22:44;;;;;;;13.88;3.88;;;;;;;16.62;64.88;98464.38;5091215;28;20494;-44
2022/11/09 01:25:09;;;;;;;10.48;3.90;;;;;;;16.62;64.74;98455.63;5091497;28;20052;-44
2022/11/09 01:27:35;;;;;;;6.28;3.30;;;;;;;16.56;65.15;98455.56;5090162;28;20497;-44
2022/11/09 01:30:01;;;;;;;7.90;3.50;;;;;;;16.70;64.94;98460.47;5091456;28;20091;-44
2022/11/09 01:32:30;;;;;;;6.97;3.72;;;;;;;16.70;64.14;98457.84;5090432;28;20500;-44
2022/11/09 01:34:56;;;;;;;8.35;3.85;;;;;;;16.59;64.35;98462.22;5090097;28;20085;-44
2022/11/09 01:37:21;;;;;;;8.55;3.35;;;;;;;16.84;64.78;98464.44;5091395;28;20024;-44
2022/11/09 01:39:47;;;;;;;14.18;4.00;;;;;;;17.00;63.67;98454.78;5090057;28;20098;-44
2022/11/09 01:42:13;;;;;;;8.68;3.55;;;;;;;16.93;63.22;98449.69;5092923;28;20024;-44
2022/11/09 01:44:39;;;;;;;5.75;3.28;;;;;;;16.91;63.47;98458.94;5095085;28;20077;-44
2022/11/09 01:47:14;;;;;;;10.27;4.20;;;;;;;16.87;64.56;98461.28;5095304;28;20462;-44
2022/11/09 01:49:52;;;;;;;9.80;4.00;;;;;;;16.67;64.91;98456.47;5095054;28;20099;-44
2022/11/09 01:52:29;;;;;;;10.18;3.75;;;;;;;16.55;66.44;98450.50;5094928;28;20043;-44
2022/11/09 01:55:00;;;;;;;10.85;5.53;;;;;;;16.70;66.17;98456.00;5094976;28;20055;-44
2022/11/09 01:57:39;;;;;;;58.60;51.17;;;;;;;16.82;65.27;98455.09;5093618;28;20032;-44
2022/11/09 02:00:11;;;;;;;63.00;56.63;;;;;;;16.73;64.79;98452.84;5094907;28;20124;-44
2022/11/09 02:02:43;;;;;;;69.57;62.30;;;;;;;16.53;64.76;98449.94;5094847;28;20024;-44
2022/11/09 02:05:13;;;;;;;136.63;124.95;;;;;;;16.38;65.11;98443.41;5094738;28;20024;-44
2022/11/09 02:07:40;;;;;;;48.63;41.25;;;;;;;16.27;65.14;98436.34;5094742;28;20036;-44
2022/11/09 02:10:28;;;;;;;10.18;7.97;;;;;;;16.16;66.30;98440.69;5094767;28;20024;-44
2022/11/09 02:12:56;;;;;;;17.13;7.07;;;;;;;16.06;67.33;98439.75;5094622;28;20038;-44
2022/11/09 02:15:21;;;;;;;12.98;5.72;;;;;;;15.92;68.86;98444.56;5093213;28;20035;-44
2022/11/09 02:17:51;;;;;;;15.05;5.97;;;;;;;15.78;70.56;98438.78;5094532;28;20028;-44
2022/11/09 02:20:17;;;;;;;17.33;5.90;;;;;;;15.72;72.01;98445.84;5094431;28;20493;-44
2022/11/09 02:22:44;;;;;;;16.92;5.65;;;;;;;15.63;72.65;98446.44;5094187;28;20537;-44
2022/11/09 02:25:12;;;;;;;14.88;8.70;;;;;;;15.54;73.11;98449.47;5092926;28;20054;-44
2022/11/09 02:27:39;;;;;;;23.27;7.90;;;;;;;15.49;74.26;98453.88;5094202;28;20119;-44
2022/11/09 02:30:06;;;;;;;20.08;7.93;;;;;;;15.50;75.40;98458.13;5076469;28;20490;-44
2022/11/09 02:32:31;;;;;;;22.35;8.57;;;;;;;15.53;77.18;98452.34;5093193;28;20032;-44
2022/11/09 02:34:57;;;;;;;41.83;10.40;;;;;;;15.63;78.69;98462.31;5094072;28;20035;-44
2022/11/09 02:37:30;;;;;;;21.63;6.82;;;;;;;15.65;79.81;98454.94;5094136;28;20111;-44
2022/11/09 02:39:59;;;;;;;26.75;9.10;;;;;;;15.63;81.08;98459.66;5094065;28;20024;-44
2022/11/09 02:42:25;;;;;;;20.33;5.32;;;;;;;15.57;81.81;98472.81;5093998;28;20498;-44
2022/11/09 02:44:57;;;;;;;32.63;18.70;;;;;;;15.28;82.14;98472.00;5093909;28;20070;-44
2022/11/09 02:47:23;;;;;;;34.28;20.25;;;;;;;15.16;83.34;98479.19;5092806;28;20101;-43
2022/11/09 02:49:49;;;;;;;30.85;9.40;;;;;;;15.00;84.19;98477.28;5093908;28;20020;-43
2022/11/09 02:52:15;;;;;;;46.10;24.08;;;;;;;14.82;85.18;98486.16;5093211;28;20056;-43
2022/11/09 02:54:41;;;;;;;37.97;24.77;;;;;;;14.77;86.41;98490.31;5093683;28;20027;-43
2022/11/09 02:57:07;;;;;;;13.48;7.10;;;;;;;14.92;87.71;98499.59;5093759;28;20024;-44
2022/11/09 02:59:33;;;;;;;41.22;22.20;;;;;;;14.92;87.38;98499.59;5092429;28;20024;-45
2022/11/09 03:01:58;;;;;;;42.75;11.68;;;;;;;14.87;88.26;98492.38;5092423;28;20547;-44
2022/11/09 03:04:24;;;;;;;44.92;33.35;;;;;;;14.78;88.14;98494.53;5093603;28;20020;-45
2022/11/09 03:06:50;;;;;;;110.32;98.65;;;;;;;14.79;89.45;98492.72;5093428;28;20023;-44
2022/11/09 03:09:15;;;;;;;88.45;78.97;;;;;;;14.79;89.81;98484.81;5093743;28;20191;-44
2022/11/09 03:11:42;;;;;;;36.63;31.73;;;;;;;14.77;90.42;98497.44;5092124;28;20536;-44
2022/11/09 03:14:10;;;;;;;90.55;83.30;;;;;;;14.73;90.71;98502.38;5093679;28;20020;-45
2022/11/09 03:16:38;;;;;;;76.95;70.25;;;;;;;14.64;90.96;98510.88;5093315;28;20032;-44
2022/11/09 03:19:04;;;;;;;16.40;12.30;;;;;;;14.52;90.91;98532.78;5093387;28;20012;-46
2022/11/09 03:21:30;;;;;;;84.85;77.63;;;;;;;14.45;91.66;98526.03;5093026;28;20040;-46
2022/11/09 03:23:55;;;;;;;108.50;99.68;;;;;;;14.50;92.56;98513.72;5091955;28;20131;-46
2022/11/09 03:26:22;;;;;;;19.45;17.45;;;;;;;14.66;93.40;98524.66;5093133;28;20482;-46
2022/11/09 03:28:47;;;;;;;15.15;12.23;;;;;;;14.77;93.64;98524.66;5093349;28;20031;-46
2022/11/09 03:31:14;;;;;;;23.83;10.77;;;;;;;14.75;93.37;98526.72;5093096;28;20509;-46
2022/11/09 03:33:39;;;;;;;11.45;6.30;;;;;;;14.60;93.28;98521.09;5093027;28;20051;-45
2022/11/09 03:36:06;;;;;;;20.63;6.78;;;;;;;14.43;92.97;98497.19;5093030;28;20098;-45
2022/11/09 03:38:32;;;;;;;11.75;5.90;;;;;;;14.28;93.48;98508.19;5092905;28;20584;-45
2022/11/09 03:41:01;;;;;;;92.57;50.22;;;;;;;14.01;93.16;98513.09;5091605;28;20066;-46
2022/11/09 03:43:28;;;;;;;17.13;8.30;;;;;;;13.95;94.20;98516.66;5091524;28;20016;-46
2022/11/09 03:45:55;;;;;;;15.88;6.82;;;;;;;13.81;93.94;98523.16;5092742;28;20031;-46
2022/11/09 03:48:21;;;;;;;12.57;5.53;;;;;;;13.68;93.97;98511.78;5091526;28;20032;-46
2022/11/09 03:50:46;;;;;;;16.70;7.70;;;;;;;13.64;94.88;98513.22;5091444;28;20513;-46
2022/11/09 03:53:12;;;;;;;14.48;6.65;;;;;;;13.78;95.52;98519.94;5091418;28;20035;-46
2022/11/09 03:55:38;;;;;;;16.25;6.65;;;;;;;13.71;95.21;98528.97;5091291;28;20411;-46
2022/11/09 03:58:06;;;;;;;21.55;7.15;;;;;;;13.66;95.39;98524.38;5092654;28;20023;-46
2022/11/09 04:00:32;;;;;;;16.98;7.20;;;;;;;13.71;96.21;98529.78;5092500;28;20490;-46
2022/11/09 04:02:58;;;;;;;17.35;6.78;;;;;;;13.75;96.37;98535.41;5091255;28;20436;-46
2022/11/09 04:05:27;;;;;;;8.40;5.88;;;;;;;13.78;96.69;98542.84;5091052;28;20039;-46
2022/11/09 04:07:56;;;;;;;8.98;4.63;;;;;;;13.81;97.07;98542.41;5092401;28;20024;-46
2022/11/09 04:10:23;;;;;;;11.23;5.38;;;;;;;13.74;96.77;98542.53;5091143;28;20032;-46
2022/11/09 04:12:49;;;;;;;11.68;5.57;;;;;;;13.74;97.41;98552.25;5092349;28;20524;-46
2022/11/09 04:15:15;;;;;;;10.43;4.63;;;;;;;13.63;96.68;98545.91;5091002;28;20074;-46
2022/11/09 04:17:41;;;;;;;12.20;5.32;;;;;;;13.58;96.95;98558.94;5090978;28;20024;-46
2022/11/09 04:20:07;;;;;;;9.32;4.00;;;;;;;13.57;97.03;98557.34;5090907;28;20035;-46
2022/11/09 04:22:34;;;;;;;9.55;6.30;;;;;;;13.61;97.47;98550.59;5090718;28;20071;-46
2022/11/09 04:25:00;;;;;;;13.75;7.22;;;;;;;13.70;97.78;98566.91;5092430;28;20085;-46
2022/11/09 04:27:25;;;;;;;12.13;5.47;;;;;;;13.62;97.36;98565.38;5092453;28;20482;-46
2022/11/09 04:29:51;;;;;;;10.35;5.97;;;;;;;13.64;97.93;98568.59;5092124;28;20028;-45
2022/11/09 04:32:17;;;;;;;8.02;5.72;;;;;;;13.58;97.64;98559.78;5092048;28;20024;-45
2022/11/09 04:34:43;;;;;;;14.38;7.03;;;;;;;13.52;97.02;98557.19;5090723;28;20096;-46
2022/11/09 04:37:09;;;;;;;11.25;8.23;;;;;;;13.47;97.24;98557.06;5092021;28;20158;-45
2022/11/09 04:39:35;;;;;;;11.02;5.03;;;;;;;13.35;96.97;98565.72;5092271;28;20444;-45
2022/11/09 04:42:01;;;;;;;10.52;5.38;;;;;;;13.24;96.80;98557.72;5090558;28;20085;-45
2022/11/09 04:44:28;;;;;;;7.55;4.20;;;;;;;13.24;97.51;98555.06;5091952;28;20056;-45
2022/11/09 04:46:54;;;;;;;7.53;4.03;;;;;;;13.16;96.74;98554.34;5091727;28;20028;-45
2022/11/09 04:49:19;;;;;;;9.70;5.95;;;;;;;13.09;97.37;98550.19;5090633;28;20030;-45
2022/11/09 04:51:45;;;;;;;7.65;4.90;;;;;;;13.01;96.51;98550.47;5090525;28;20024;-45
2022/11/09 04:54:11;;;;;;;12.15;6.07;;;;;;;12.92;96.82;98553.41;5090570;28;20093;-45
2022/11/09 04:56:36;;;;;;;15.57;8.57;;;;;;;12.88;97.34;98554.06;5091733;28;20085;-45
2022/11/09 04:59:02;;;;;;;7.82;5.18;;;;;;;12.99;98.52;98559.38;5091799;28;20052;-45
2022/11/09 05:01:27;;;;;;;8.18;5.13;;;;;;;13.03;98.59;98554.50;5091731;28;20478;-45
2022/11/09 05:03:53;;;;;;;18.63;8.45;;;;;;;13.01;98.29;98561.00;5090752;28;20097;-45
2022/11/09 05:06:30;;;;;;;16.02;8.52;;;;;;;12.97;98.69;98558.81;5090323;28;20055;-44
2022/11/09 05:08:57;;;;;;;18.02;9.43;;;;;;;12.80;98.70;98555.16;5090732;28;20032;-44
2022/11/09 05:11:23;;;;;;;24.23;10.25;;;;;;;12.85;99.68;98562.38;5091652;28;20024;-44
2022/11/09 05:13:52;;;;;;;13.10;8.93;;;;;;;12.94;100.00;98558.47;5090624;28;20489;-44
2022/11/09 05:16:19;;;;;;;16.73;10.02;;;;;;;12.95;100.00;98562.69;5091916;28;20393;-45
2022/11/09 05:18:45;;;;;;;15.35;9.27;;;;;;;12.91;100.00;98567.59;5095664;28;20021;-45
2022/11/09 05:21:11;;;;;;;13.63;7.65;;;;;;;12.92;100.00;98565.78;5094005;28;20024;-45
2022/11/09 05:26:21;;;;;;;9.35;6.15;;;;;;;12.78;99.73;98559.84;5095584;28;20036;-44
2022/11/09 05:28:47;;;;;;;14.00;6.38;;;;;;;12.85;100.00;98551.84;5094173;28;20025;-44
2022/11/09 05:31:13;;;;;;;15.65;6.68;;;;;;;12.91;100.00;98550.97;5094140;28;20401;-44
2022/11/09 05:33:38;;;;;;;15.48;7.28;;;;;;;12.94;100.00;98556.63;5095618;28;20397;-44
2022/11/09 05:36:04;;;;;;;10.77;7.15;;;;;;;13.02;100.00;98555.53;5095317;28;20024;-45
2022/11/09 05:38:30;;;;;;;38.58;13.98;;;;;;;12.94;100.00;98551.34;5095291;28;20389;-44
2022/11/09 05:40:56;;;;;;;22.15;12.00;;;;;;;12.82;100.00;98547.84;5095271;28;20024;-44
2022/11/09 05:43:22;;;;;;;24.27;11.15;;;;;;;12.81;100.00;98562.00;5095173;28;20062;-44
2022/11/09 05:45:47;;;;;;;19.40;8.77;;;;;;;12.88;100.00;98562.75;5095102;28;20024;-45
2022/11/09 05:48:15;;;;;;;13.57;7.13;;;;;;;12.87;100.00;98544.53;5093896;28;20028;-44
2022/11/09 05:50:41;;;;;;;17.42;9.88;;;;;;;12.89;100.00;98540.66;5094069;28;20453;-44
2022/11/09 05:53:08;;;;;;;14.38;6.28;;;;;;;12.94;100.00;98554.00;5093868;28;20020;-45
2022/11/09 05:55:34;;;;;;;13.80;8.80;;;;;;;12.85;100.00;98559.75;5095043;28;20016;-45
2022/11/09 05:58:00;;;;;;;19.60;9.48;;;;;;;12.81;100.00;98566.47;5095067;28;20438;-45
2022/11/09 06:00:26;;;;;;;12.57;7.95;;;;;;;12.84;100.00;98558.97;5094878;28;20016;-45
2022/11/09 06:02:51;;;;;;;15.10;9.65;;;;;;;12.87;100.00;98565.59;5094878;28;20028;-45
2022/11/09 06:05:19;;;;;;;22.17;9.32;;;;;;;12.86;100.00;98566.63;5094739;28;20048;-45
2022/11/09 06:07:45;;;;;;;19.38;9.20;;;;;;;12.88;100.00;98564.59;5093529;28;20040;-45
2022/11/09 06:10:11;;;;;;;19.05;6.38;;;;;;;12.90;100.00;98581.78;5076771;28;20044;-45
2022/11/09 06:12:37;;;;;;;17.58;6.90;;;;;;;12.90;100.00;98573.09;5093348;28;20058;-45
2022/11/09 06:15:04;;;;;;;7.95;5.93;;;;;;;12.91;100.00;98570.22;5094586;28;20482;-45
2022/11/09 06:17:30;;;;;;;18.90;8.63;;;;;;;12.89;100.00;98582.81;5093234;28;20024;-45
2022/11/09 06:19:55;;;;;;;11.85;6.75;;;;;;;12.94;100.00;98579.53;5093259;28;20073;-45
2022/11/09 06:22:21;;;;;;;7.50;5.95;;;;;;;12.95;100.00;98581.94;5094182;28;20044;-45
2022/11/09 06:24:46;;;;;;;9.05;5.85;;;;;;;12.92;100.00;98582.38;5094464;28;20403;-45
2022/11/09 06:27:12;;;;;;;11.63;6.70;;;;;;;13.04;100.00;98569.28;5093348;28;20031;-45
2022/11/09 06:29:38;;;;;;;13.80;8.38;;;;;;;13.17;100.00;98573.59;5094078;28;20027;-45
2022/11/09 06:32:04;;;;;;;15.98;9.27;;;;;;;13.23;100.00;98572.72;5094234;28;20020;-45
2022/11/09 06:34:29;;;;;;;12.27;8.50;;;;;;;13.24;100.00;98571.72;5094225;28;20017;-45
2022/11/09 06:36:55;;;;;;;10.13;8.95;;;;;;;13.30;100.00;98573.50;5092863;28;20055;-45
2022/11/09 06:39:22;;;;;;;15.55;9.65;;;;;;;13.44;100.00;98578.59;5092931;28;20482;-45
2022/11/09 06:41:47;;;;;;;15.27;10.43;;;;;;;13.43;100.00;98577.00;5094067;28;20016;-45
2022/11/09 06:44:14;;;;;;;18.65;10.50;;;;;;;13.45;100.00;98582.84;5094102;28;20059;-45
2022/11/09 06:46:39;;;;;;;25.48;10.73;;;;;;;13.48;100.00;98591.13;5093814;28;20023;-45
2022/11/09 06:49:05;;;;;;;14.18;9.80;;;;;;;13.59;100.00;98582.47;5093977;28;20487;-45
2022/11/09 06:51:31;;;;;;;23.77;18.25;;;;;;;13.57;100.00;98589.78;5093819;28;20040;-45
2022/11/09 06:53:56;;;;;;;18.83;13.82;;;;;;;13.50;100.00;98589.09;5092517;28;20031;-45
2022/11/09 06:56:22;;;;;;;16.42;8.13;;;;;;;13.52;100.00;98597.56;5093743;28;20034;-45
2022/11/09 06:58:48;;;;;;;15.45;9.50;;;;;;;13.41;100.00;98598.31;5093979;28;20065;-45
2022/11/09 07:01:16;;;;;;;17.60;12.57;;;;;;;13.30;100.00;98588.47;5093737;28;20508;-45
2022/11/09 07:03:42;;;;;;;13.68;7.20;;;;;;;13.34;100.00;98598.38;5093577;28;20077;-45
2022/11/09 07:06:10;;;;;;;24.17;13.75;;;;;;;13.35;100.00;98597.34;5093537;28;20024;-45
2022/11/09 07:08:37;;;;;;;24.23;15.80;;;;;;;13.33;100.00;98595.97;5092257;28;20016;-45
2022/11/09 07:11:15;;;;;;;22.02;14.15;;;;;;;13.21;100.00;98595.06;5092208;28;20031;-45
2022/11/09 07:13:41;;;;;;;2.45;2.25;;;;;;;13.21;100.00;98581.88;5093549;28;20077;-45
2022/11/09 07:16:07;;;;;;;0.00;0.00;;;;;;;13.32;100.00;98587.25;5093385;28;20042;-45
2022/11/09 07:18:33;;;;;;;0.82;0.80;;;;;;;13.28;100.00;98596.59;5093612;28;20050;-45
2022/11/09 07:20:59;;;;;;;0.10;0.10;;;;;;;13.38;100.00;98604.00;5093292;28;20043;-46
2022/11/09 07:23:25;;;;;;;0.45;0.45;;;;;;;13.46;100.00;98587.09;5091760;28;20052;-46
2022/11/09 07:25:51;;;;;;;0.10;0.10;;;;;;;13.66;100.00;98585.03;5093133;28;20095;-45
2022/11/09 07:28:17;;;;;;;0.15;0.15;;;;;;;13.57;100.00;98587.16;5093436;28;20400;-45
2022/11/09 07:30:42;;;;;;;0.00;0.00;;;;;;;13.45;100.00;98583.66;5093133;28;20069;-45
2022/11/09 07:33:13;;;;;;;0.00;0.00;;;;;;;13.38;100.00;98604.00;5093056;28;20020;-45
2022/11/09 07:35:39;;;;;;;0.98;0.38;;;;;;;13.42;100.00;98601.72;5091687;28;20106;-45
2022/11/09 07:38:05;;;;;;;0.10;0.10;;;;;;;13.52;100.00;98608.13;5093029;28;20177;-45
2022/11/09 07:40:31;;;;;;;0.00;0.00;;;;;;;13.50;100.00;98601.44;5091366;28;20043;-45
2022/11/09 07:43:01;;;;;;;0.00;0.00;;;;;;;13.54;100.00;98602.59;5091846;28;20067;-45
2022/11/09 07:45:28;;;;;;;0.05;0.05;;;;;;;13.52;100.00;98592.28;5092995;28;20024;-45
2022/11/09 07:47:55;;;;;;;0.10;0.10;;;;;;;13.47;100.00;98597.41;5091512;28;20413;-45
2022/11/09 07:50:21;;;;;;;0.10;0.10;;;;;;;13.46;100.00;98602.91;5091412;28;20105;-45
2022/11/09 07:52:46;;;;;;;1.48;1.08;;;;;;;13.46;100.00;98605.53;5091441;28;20075;-45
2022/11/09 07:55:12;;;;;;;0.00;0.00;;;;;;;13.53;100.00;98606.28;5092703;28;20101;-45
2022/11/09 07:57:38;;;;;;;0.00;0.00;;;;;;;13.58;100.00;98606.41;5092714;28;20103;-45
2022/11/09 08:00:04;;;;;;;0.00;0.00;;;;;;;13.51;100.00;98595.16;5092630;28;20019;-45
2022/11/09 08:02:29;;;;;;;0.00;0.00;;;;;;;13.63;100.00;98592.56;5092506;28;20024;-46
2022/11/09 08:04:55;;;;;;;0.03;0.03;;;;;;;13.68;100.00;98600.59;5091201;28;20402;-46
2022/11/09 08:07:22;;;;;;;0.05;0.05;;;;;;;13.74;100.00;98607.63;5092488;28;20024;-46
2022/11/09 08:09:48;;;;;;;0.00;0.00;;;;;;;13.81;100.00;98611.00;5092447;28;20493;-46
2022/11/09 08:12:14;;;;;;;0.00;0.00;;;;;;;13.75;100.00;98614.53;5091066;28;20054;-45
2022/11/09 08:14:39;;;;;;;0.00;0.00;;;;;;;13.69;100.00;98623.34;5092413;28;20031;-45
2022/11/09 08:17:05;;;;;;;0.00;0.00;;;;;;;13.59;100.00;98611.47;5092582;28;20032;-45
2022/11/09 08:19:31;;;;;;;0.00;0.00;;;;;;;13.55;100.00;98605.03;5090975;28;20048;-45
2022/11/09 08:21:56;;;;;;;0.22;0.22;;;;;;;13.51;100.00;98603.06;5092006;28;20093;-45
2022/11/09 08:24:22;;;;;;;0.00;0.00;;;;;;;13.54;100.00;98597.31;5091122;28;20063;-45
2022/11/09 08:26:48;;;;;;;0.98;0.30;;;;;;;13.56;100.00;98603.19;5091119;28;20539;-45
2022/11/09 08:29:14;;;;;;;0.10;0.10;;;;;;;13.58;100.00;98606.41;5091106;28;20028;-45
2022/11/09 08:31:40;;;;;;;0.10;0.10;;;;;;;13.53;100.00;98615.00;5092066;28;20390;-45
2022/11/09 08:34:13;;;;;;;0.00;0.00;;;;;;;13.54;100.00;98613.97;5092180;28;20028;-45
2022/11/09 08:36:39;;;;;;;2.90;1.85;;;;;;;13.53;100.00;98615.00;5092115;28;20498;-45
2022/11/09 08:39:05;;;;;;;0.10;0.10;;;;;;;13.67;100.00;98614.84;5090767;28;20031;-45
2022/11/09 08:41:30;;;;;;;1.10;0.90;;;;;;;13.70;100.00;98620.47;5090610;28;20435;-45
2022/11/09 08:43:56;;;;;;;0.10;0.10;;;;;;;13.70;100.00;98628.41;5091950;28;20028;-45
2022/11/09 08:46:22;;;;;;;0.45;0.45;;;;;;;13.81;100.00;98626.03;5090537;28;20521;-45
2022/11/09 08:48:47;;;;;;;0.00;0.00;;;;;;;13.88;100.00;98616.97;5090605;28;20024;-45
2022/11/09 08:51:13;;;;;;;0.65;0.65;;;;;;;13.91;100.00;98619.19;5091158;28;20113;-45
2022/11/09 08:53:39;;;;;;;0.15;0.15;;;;;;;13.96;100.00;98600.88;5091904;28;20020;-45
2022/11/09 08:56:06;;;;;;;0.00;0.00;;;;;;;13.98;100.00;98606.72;5092024;28;20512;-46
2022/11/09 08:58:32;;;;;;;0.05;0.05;;;;;;;13.99;100.00;98615.44;5092105;28;20016;-46
2022/11/09 09:00:58;;;;;;;0.22;0.22;;;;;;;14.09;100.00;98613.06;5090459;28;20494;-45
2022/11/09 09:03:24;;;;;;;0.00;0.00;;;;;;;14.14;100.00;98610.53;5090411;28;20030;-45
2022/11/09 09:05:50;;;;;;;0.10;0.10;;;;;;;14.19;100.00;98618.59;5091664;28;20035;-45
2022/11/09 09:08:20;;;;;;;0.00;0.00;;;;;;;14.10;100.00;98613.84;5091774;28;20390;-45
2022/11/09 09:10:46;;;;;;;0.00;0.00;;;;;;;14.08;100.00;98619.34;5091819;28;20131;-45
2022/11/09 09:13:12;;;;;;;1.38;1.27;;;;;;;14.06;100.00;98615.34;5091979;28;20482;-45
2022/11/09 09:15:38;;;;;;;0.00;0.00;;;;;;;14.03;100.00;98613.16;5091963;28;20031;-45
2022/11/09 09:18:04;;;;;;;0.00;0.00;;;;;;;13.96;100.00;98606.13;5090655;28;20024;-45
2022/11/09 09:20:31;;;;;;;0.00;0.00;;;;;;;13.95;100.00;98609.00;5090728;28;20478;-45
2022/11/09 09:22:58;;;;;;;0.10;0.10;;;;;;;13.93;100.00;98614.50;5091397;28;20127;-45
2022/11/09 09:25:25;;;;;;;0.00;0.00;;;;;;;13.90;100.00;98606.22;5090186;28;20073;-45
2022/11/09 09:27:50;;;;;;;0.00;0.00;;;;;;;13.87;100.00;98604.03;5091625;28;20038;-45
2022/11/09 09:30:16;;;;;;;0.13;0.13;;;;;;;13.93;100.00;98609.22;5090197;28;20103;-46
2022/11/09 09:32:42;;;;;;;0.00;0.00;;;;;;;14.05;100.00;98619.81;5091527;28;20028;-45
2022/11/09 09:35:08;;;;;;;0.05;0.05;;;;;;;14.15;100.00;98620.06;5091468;28;20051;-46
2022/11/09 09:37:34;;;;;;;0.00;0.00;;;;;;;14.29;100.00;98617.25;5091503;28;20028;-46
2022/11/09 09:39:59;;;;;;;0.38;0.38;;;;;;;14.39;100.00;98618.28;5091457;28;20020;-46
2022/11/09 09:42:35;;;;;;;1.10;1.05;;;;;;;14.47;100.00;98611.09;5091358;28;20032;-46
2022/11/09 09:45:13;;;;;;;0.00;0.00;;;;;;;14.62;100.00;98616.75;5090027;28;20043;-47
2022/11/09 09:48:16;;;;;;;0.00;0.00;;;;;;;14.76;100.00;98612.84;5090129;28;20028;-47
2022/11/09 09:50:52;;;;;;;0.00;0.00;;;;;;;14.96;100.00;98620.44;5065815;28;20043;-46
2022/11/09 09:53:33;;;;;;;0.10;0.10;;;;;;;14.90;100.00;98610.00;5091309;28;20390;-47
2022/11/09 09:56:09;;;;;;;0.00;0.00;;;;;;;14.66;100.00;98609.97;5091305;28;20024;-47
2022/11/09 09:58:44;;;;;;;0.10;0.10;;;;;;;14.59;100.00;98622.50;5090016;28;20124;-46
2022/11/09 10:01:18;;;;;;;0.00;0.00;;;;;;;14.65;100.00;98608.38;5090029;28;20539;-47
2022/11/09 10:03:45;;;;;;;0.20;0.20;;;;;;;14.58;100.00;98611.13;5094826;28;20073;-47
2022/11/09 10:06:17;;;;;;;0.00;0.00;;;;;;;14.41;100.00;98610.16;5093431;28;20056;-46
2022/11/09 10:08:56;;;;;;;0.00;0.00;;;;;;;14.30;100.00;98608.28;5094760;28;20074;-45
2022/11/09 10:11:59;;;;;;;0.10;0.10;;;;;;;14.28;100.00;98611.16;5094741;28;20028;-46
2022/11/09 10:14:43;;;;;;;0.10;0.10;;;;;;;14.31;100.00;98617.84;5094716;28;20023;-46
2022/11/09 10:17:36;;;;;;;0.00;0.00;;;;;;;14.22;100.00;98613.88;5094613;28;20157;-46
2022/11/09 10:20:40;;;;;;;0.00;0.00;;;;;;;14.31;100.00;98623.91;5093635;28;20052;-46
2022/11/09 10:23:39;;;;;;;0.15;0.15;;;;;;;14.49;100.00;98614.31;5094389;28;20056;-47
2022/11/09 10:26:12;;;;;;;0.00;0.00;;;;;;;14.70;100.00;98611.13;5093109;28;20028;-47
2022/11/09 10:28:41;;;;;;;0.20;0.20;;;;;;;14.86;100.00;98617.56;5094376;28;20040;-47
2022/11/09 10:31:18;;;;;;;0.00;0.00;;;;;;;14.93;100.00;98620.91;5093368;28;20398;-48
2022/11/09 10:33:48;;;;;;;0.00;0.00;;;;;;;15.12;100.00;98621.59;5093078;28;20084;-47
2022/11/09 10:36:14;;;;;;;0.00;0.00;;;;;;;15.18;100.00;98625.94;5094335;28;20444;-48
2022/11/09 10:38:46;;;;;;;0.00;0.00;;;;;;;15.36;100.00;98621.56;5092949;28;20024;-48
2022/11/09 10:41:34;;;;;;;0.00;0.00;;;;;;;15.54;100.00;98616.13;5092885;28;20028;-48
2022/11/09 10:44:00;;;;;;;0.25;0.25;;;;;;;15.78;100.00;98627.47;5094169;28;20028;-47
2022/11/09 10:46:26;;;;;;;0.00;0.00;;;;;;;15.90;100.00;98631.91;5092693;28;20031;-47
2022/11/09 10:48:54;;;;;;;0.35;0.35;;;;;;;16.03;100.00;98615.72;5092759;28;20464;-47
2022/11/09 10:51:41;;;;;;;0.00;0.00;;;;;;;16.32;100.00;98619.16;5093987;28;20122;-48
2022/11/09 10:54:30;;;;;;;0.10;0.10;;;;;;;16.35;100.00;98613.38;5094134;28;20109;-48
2022/11/09 10:57:17;;;;;;;0.00;0.00;;;;;;;16.11;100.00;98611.91;5093956;28;20031;-48
2022/11/09 10:59:49;;;;;;;1.02;1.00;;;;;;;16.07;100.00;98614.22;5092770;28;20126;-48
2022/11/09 11:02:24;;;;;;;0.08;0.08;;;;;;;16.23;100.00;98612.63;5093776;28;20043;-48
2022/11/09 11:05:16;;;;;;;0.00;0.00;;;;;;;16.34;100.00;98611.78;5093784;28;20020;-48
2022/11/09 11:07:42;;;;;;;0.15;0.15;;;;;;;16.26;100.00;98606.06;5085170;28;20035;-47
2022/11/09 11:10:14;;;;;;;0.00;0.00;;;;;;;16.12;100.00;98609.03;5093611;28;20095;-48
2022/11/09 11:12:50;;;;;;;0.22;0.22;;;;;;;16.04;100.00;98609.41;5093623;28;20103;-47
2022/11/09 11:15:28;;;;;;;0.43;0.32;;;;;;;16.07;100.00;98614.22;5092958;28;20380;-47
2022/11/09 11:18:01;;;;;;;0.00;0.00;;;;;;;16.21;100.00;98613.94;5093825;28;20377;-47
2022/11/09 11:20:36;;;;;;;0.00;0.00;;;;;;;16.38;100.00;98618.22;5092079;28;20032;-48
2022/11/09 11:23:25;;;;;;;0.00;0.00;;;;;;;16.50;100.00;98609.38;5092091;28;20055;-48
2022/11/09 11:25:56;;;;;;;0.00;0.00;;;;;;;16.46;100.00;98614.38;5081438;28;20028;-47
2022/11/09 11:28:25;;;;;;;0.00;0.00;;;;;;;16.27;99.48;98616.41;5093211;28;20020;-47
2022/11/09 11:30:52;;;;;;;0.00;0.00;;;;;;;16.17;100.00;98611.75;5091891;28;20535;-47
2022/11/09 11:33:18;;;;;;;0.08;0.08;;;;;;;16.14;100.00;98616.75;5091929;28;20024;-47